Rolling Fork, Mississippi
Current Conditions -  °F | °C
As of 3:53 AM on Thursday 18 Dec 2014 (Local Time) from KTVR Reporting Station
Overcast Overcast  
Wind Chill: 43°   Ceiling: 4300
Heat Index: 46°   Visibility: 10mi
Dew Point: 39°   Wind: 6mph
Humidity: 76%   Direction: 30°NNE
Pressure: 30.19"   Gusts: NA
Location:  32.91°N, 90.88°W
Report Text: KTVR 180953Z AUTO 03005KT 10SM OVC043 08/04 A3019 RMK AO2 RAE01 SLP230 P0000 T00780039
Loading
Personal Weather Stations






























Interactive Weather Map New forecast layout! Learn more

10-Day Weather Forecast

Advertisements
Track Severe Weather on mobile